createdAt,value
2018-12-24T00:02:20.924Z,21.20
2018-12-24T00:04:52.688Z,20.23
2018-12-24T00:07:24.089Z,20.53
2018-12-24T00:09:55.569Z,22.67
2018-12-24T00:12:27.420Z,23.03
2018-12-24T00:14:58.888Z,22.53
2018-12-24T00:17:30.355Z,23.40
2018-12-24T00:20:01.852Z,25.37
2018-12-24T00:22:33.255Z,23.97
2018-12-24T00:25:04.982Z,25.50
2018-12-24T00:27:36.378Z,26.73
2018-12-24T00:30:08.132Z,26.60
2018-12-24T00:32:39.633Z,24.57
2018-12-24T00:35:11.086Z,24.23
2018-12-24T00:37:42.504Z,24.47
2018-12-24T00:40:15.066Z,25.57
2018-12-24T00:42:46.536Z,23.07
2018-12-24T00:45:18.171Z,17.40
2018-12-24T00:47:49.830Z,17.27
2018-12-24T00:50:21.250Z,17.77
2018-12-24T00:52:52.765Z,16.17
2018-12-24T00:55:24.445Z,16.50
2018-12-24T00:57:56.165Z,16.03
2018-12-24T01:00:27.589Z,16.73
2018-12-24T01:02:59.019Z,14.77
2018-12-24T01:05:30.503Z,14.40
2018-12-24T01:08:02.373Z,16.30
2018-12-24T01:10:34.058Z,15.77
2018-12-24T01:13:05.691Z,16.83
2018-12-24T01:15:38.156Z,24.37
2018-12-24T01:18:09.644Z,23.17
2018-12-24T01:20:41.549Z,25.63
2018-12-24T01:23:12.989Z,20.80
2018-12-24T01:25:44.467Z,21.30
2018-12-24T01:28:15.950Z,21.50
2018-12-24T01:30:47.458Z,21.57
2018-12-24T01:33:18.876Z,21.43
2018-12-24T01:35:50.295Z,23.67
2018-12-24T01:38:21.783Z,24.43
2018-12-24T01:40:54.829Z,24.27
2018-12-24T01:43:26.471Z,23.93
2018-12-24T01:45:57.910Z,24.43
2018-12-24T01:48:29.326Z,23.43
2018-12-24T01:51:00.758Z,22.20
2018-12-24T01:53:32.147Z,22.50
2018-12-24T01:56:03.661Z,21.73
2018-12-24T01:58:35.068Z,21.90
2018-12-24T02:01:06.485Z,23.33
2018-12-24T02:03:38.096Z,21.77
2018-12-24T02:06:10.060Z,21.90
2018-12-24T02:08:41.495Z,23.30
2018-12-24T02:11:12.937Z,24.40
2018-12-24T02:13:44.357Z,22.83
2018-12-24T02:16:15.807Z,22.17
2018-12-24T02:18:47.177Z,22.67
2018-12-24T02:21:18.614Z,23.13
2018-12-24T02:23:50.175Z,22.23
2018-12-24T02:26:21.599Z,21.60
2018-12-24T02:28:53.218Z,21.53
2018-12-24T02:31:25.098Z,21.40
2018-12-24T02:33:57.034Z,21.40
2018-12-24T02:36:28.860Z,22.37
2018-12-24T02:39:00.499Z,22.10
2018-12-24T02:41:32.015Z,24.47
2018-12-24T02:44:03.437Z,25.03
2018-12-24T02:46:35.043Z,25.33
2018-12-24T02:49:06.434Z,25.20
2018-12-24T02:51:37.858Z,25.27
2018-12-24T02:54:09.380Z,25.60
2018-12-24T02:56:40.975Z,27.43
2018-12-24T02:59:12.704Z,26.87
2018-12-24T03:01:44.438Z,26.93
2018-12-24T03:04:15.860Z,27.13
2018-12-24T03:06:47.435Z,23.73
2018-12-24T03:09:18.927Z,24.20
2018-12-24T03:11:50.604Z,23.90
2018-12-24T03:14:22.250Z,23.13
2018-12-24T03:16:53.746Z,21.10
2018-12-24T03:19:25.144Z,23.17
2018-12-24T03:21:56.587Z,20.90
2018-12-24T03:24:28.132Z,21.17
2018-12-24T03:26:59.585Z,20.87
2018-12-24T03:29:31.010Z,20.23
2018-12-24T03:32:02.475Z,21.63
2018-12-24T03:34:33.872Z,20.63
2018-12-24T03:37:05.377Z,20.77
2018-12-24T03:39:36.817Z,20.93
2018-12-24T03:42:08.386Z,32.50
2018-12-24T03:44:39.835Z,32.27
2018-12-24T03:47:11.282Z,27.67
2018-12-24T03:49:42.694Z,26.47
2018-12-24T03:52:14.142Z,21.07
2018-12-24T03:54:45.538Z,18.07
2018-12-24T03:57:17.001Z,14.97
2018-12-24T03:59:48.408Z,17.17
2018-12-24T04:02:19.933Z,17.10
2018-12-24T04:04:51.354Z,16.70
2018-12-24T04:07:22.812Z,16.90
2018-12-24T04:09:54.257Z,15.60
2018-12-24T04:12:25.716Z,12.60
2018-12-24T04:14:57.130Z,13.40
2018-12-24T04:17:28.585Z,13.37
2018-12-24T04:19:59.986Z,12.70
2018-12-24T04:22:31.466Z,14.00
2018-12-24T04:25:02.863Z,13.17
2018-12-24T04:27:41.778Z,13.47
2018-12-24T04:30:07.456Z,13.47
2018-12-24T04:32:38.908Z,13.93
2018-12-24T04:35:10.400Z,15.33
2018-12-24T04:37:41.857Z,14.37
2018-12-24T04:40:13.262Z,15.63
2018-12-24T04:42:44.825Z,17.43
2018-12-24T04:45:16.286Z,17.33
2018-12-24T04:47:47.851Z,16.43
2018-12-24T04:50:19.257Z,17.90
2018-12-24T04:52:50.763Z,17.83
2018-12-24T04:55:22.178Z,19.83
2018-12-24T04:57:53.659Z,20.20
2018-12-24T05:00:25.083Z,19.87
2018-12-24T05:02:56.589Z,19.97
2018-12-24T05:05:28.009Z,19.40
2018-12-24T05:07:59.569Z,19.53
2018-12-24T05:10:31.068Z,19.57
2018-12-24T05:13:02.743Z,19.70
2018-12-24T05:15:34.279Z,20.87
2018-12-24T05:18:06.179Z,24.67
2018-12-24T05:20:37.919Z,22.30
2018-12-24T05:23:09.421Z,20.60
2018-12-24T05:25:40.941Z,17.03
2018-12-24T05:28:12.668Z,17.03
2018-12-24T05:30:44.296Z,17.47
2018-12-24T05:33:15.913Z,16.70
2018-12-24T05:35:47.637Z,17.57
2018-12-24T05:38:19.285Z,36.53
2018-12-24T05:40:51.186Z,16.43
2018-12-24T05:43:22.923Z,16.57
2018-12-24T05:45:54.724Z,16.33
2018-12-24T05:48:26.352Z,16.43
2018-12-24T05:50:59.130Z,15.27
2018-12-24T05:53:30.815Z,15.23
2018-12-24T05:56:02.372Z,16.50
2018-12-24T05:58:33.958Z,14.93
2018-12-24T06:01:05.453Z,14.07
2018-12-24T06:03:36.905Z,20.63
2018-12-24T06:06:08.307Z,43.80
2018-12-24T06:08:39.757Z,24.50
2018-12-24T06:11:11.278Z,25.20
2018-12-24T06:13:42.748Z,24.77
2018-12-24T06:16:14.222Z,27.60
2018-12-24T06:18:45.661Z,16.77
2018-12-24T06:21:17.404Z,17.77
2018-12-24T06:23:48.816Z,17.37
2018-12-24T06:26:20.273Z,18.50
2018-12-24T06:28:51.746Z,16.40
2018-12-24T06:31:23.158Z,19.03
2018-12-24T06:33:54.579Z,19.53
2018-12-24T06:36:26.155Z,16.43
2018-12-24T06:38:57.646Z,19.40
2018-12-24T06:41:29.347Z,20.40
2018-12-24T06:44:06.642Z,19.90
2018-12-24T06:46:34.313Z,23.03
2018-12-24T06:49:05.942Z,23.63
2018-12-24T06:51:37.559Z,22.77
2018-12-24T06:54:09.118Z,21.37
2018-12-24T06:56:40.804Z,18.60
2018-12-24T06:59:12.449Z,17.43
2018-12-24T07:01:44.177Z,13.60
2018-12-24T07:04:15.705Z,14.47
2018-12-24T07:06:47.513Z,22.80
2018-12-24T07:09:19.058Z,14.47
2018-12-24T07:11:50.558Z,15.27
2018-12-24T07:14:22.080Z,23.93
2018-12-24T07:16:53.589Z,16.23
2018-12-24T07:19:25.031Z,17.87
2018-12-24T07:21:56.427Z,21.40
2018-12-24T07:24:27.979Z,17.20
2018-12-24T07:26:59.915Z,17.37
2018-12-24T07:29:31.437Z,16.93
2018-12-24T07:32:03.021Z,16.70
2018-12-24T07:34:34.528Z,17.03
2018-12-24T07:37:06.001Z,25.87
2018-12-24T07:39:37.570Z,37.97
2018-12-24T07:42:10.115Z,16.60
2018-12-24T07:44:41.665Z,16.73
2018-12-24T07:47:13.110Z,16.60
2018-12-24T07:49:44.654Z,16.47
2018-12-24T07:52:16.163Z,26.23
2018-12-24T07:54:47.836Z,15.23
2018-12-24T07:57:19.514Z,13.33
2018-12-24T07:59:51.060Z,12.37
2018-12-24T08:02:22.731Z,13.00
2018-12-24T08:04:54.285Z,12.20
2018-12-24T08:07:25.696Z,11.60
2018-12-24T08:09:57.202Z,13.37
2018-12-24T08:12:28.923Z,11.70
2018-12-24T08:15:00.390Z,11.70
2018-12-24T08:17:31.802Z,22.73
2018-12-24T08:20:03.359Z,14.73
2018-12-24T08:22:34.808Z,12.57
2018-12-24T08:25:06.489Z,12.50
2018-12-24T08:27:40.171Z,12.33
2018-12-24T08:30:12.338Z,24.07
2018-12-24T08:32:44.140Z,13.33
2018-12-24T08:35:16.761Z,12.97
2018-12-24T08:37:48.519Z,13.50
2018-12-24T08:40:20.288Z,14.07
2018-12-24T08:42:51.853Z,12.53
2018-12-24T08:45:23.547Z,12.63
2018-12-24T08:47:55.213Z,11.27
2018-12-24T08:50:26.691Z,12.87
2018-12-24T08:52:58.227Z,22.23
2018-12-24T08:55:29.765Z,32.10
2018-12-24T08:58:01.465Z,38.43
2018-12-24T09:00:33.091Z,38.63
2018-12-24T09:03:04.941Z,38.80
2018-12-24T09:05:36.765Z,26.80
2018-12-24T09:08:08.589Z,17.30
2018-12-24T09:10:40.191Z,15.90
2018-12-24T09:13:11.911Z,17.23
2018-12-24T09:15:43.854Z,15.33
2018-12-24T09:18:15.552Z,9.83
2018-12-24T09:20:52.577Z,8.53
2018-12-24T09:23:20.574Z,7.00
2018-12-24T09:25:52.503Z,7.20
2018-12-24T09:28:24.110Z,11.07
2018-12-24T09:30:55.716Z,9.20
2018-12-24T09:33:27.564Z,7.63
2018-12-24T09:35:59.275Z,10.47
2018-12-24T09:38:31.114Z,9.97
2018-12-24T09:41:02.899Z,7.20
2018-12-24T09:43:35.554Z,8.33
2018-12-24T09:46:09.636Z,8.00
2018-12-24T09:48:41.394Z,7.60
2018-12-24T09:51:12.842Z,7.60
2018-12-24T09:53:44.271Z,8.30
2018-12-24T09:56:15.816Z,34.40
2018-12-24T09:58:47.540Z,12.40
2018-12-24T10:01:19.152Z,10.43
2018-12-24T10:04:02.715Z,13.37
2018-12-24T10:06:37.635Z,13.47
2018-12-24T10:09:14.087Z,13.73
2018-12-24T10:11:45.783Z,14.03
2018-12-24T10:14:17.523Z,15.27
2018-12-24T10:16:49.232Z,15.23
2018-12-24T10:19:20.845Z,15.50
2018-12-24T10:21:52.589Z,26.17
2018-12-24T10:24:24.129Z,29.20
2018-12-24T10:26:55.703Z,23.77
2018-12-24T10:29:27.586Z,24.87
2018-12-24T10:31:59.444Z,23.70
2018-12-24T10:34:31.080Z,23.30
2018-12-24T10:37:02.793Z,25.50
2018-12-24T10:39:34.353Z,23.10
2018-12-24T10:42:05.951Z,20.37
2018-12-24T10:44:37.563Z,19.30
2018-12-24T10:47:10.281Z,16.10
2018-12-24T10:49:41.861Z,14.53
2018-12-24T10:52:13.758Z,18.20
2018-12-24T10:54:45.388Z,18.23
2018-12-24T10:57:16.864Z,16.90
2018-12-24T10:59:48.642Z,15.13
2018-12-24T11:02:20.298Z,22.87
2018-12-24T11:04:51.892Z,18.43
2018-12-24T11:07:23.580Z,5.13
2018-12-24T11:09:55.645Z,12.10
2018-12-24T11:12:27.237Z,8.40
2018-12-24T11:14:58.962Z,11.40
2018-12-24T11:17:30.656Z,10.77
2018-12-24T11:20:02.384Z,6.37
2018-12-24T11:22:34.001Z,8.70
2018-12-24T11:25:05.627Z,1.90
2018-12-24T11:27:37.372Z,10.70
2018-12-24T11:30:09.278Z,13.03
2018-12-24T11:32:40.986Z,10.60
2018-12-24T11:35:12.652Z,13.07
2018-12-24T11:37:44.301Z,10.70
2018-12-24T11:40:30.422Z,9.87
2018-12-24T11:43:01.885Z,9.63
2018-12-24T11:45:33.873Z,13.27
2018-12-24T11:48:06.608Z,12.60
2018-12-24T11:50:38.429Z,11.03
2018-12-24T11:53:10.053Z,9.43
2018-12-24T11:55:41.667Z,7.93
2018-12-24T11:58:13.614Z,9.50
2018-12-24T12:00:45.127Z,7.80
2018-12-24T12:03:16.876Z,6.90
2018-12-24T12:05:48.546Z,6.70
2018-12-24T12:08:20.239Z,7.87
2018-12-24T12:10:51.794Z,13.67
2018-12-24T12:13:23.513Z,8.87
2018-12-24T12:15:55.156Z,7.17
2018-12-24T12:18:26.840Z,6.83
2018-12-24T12:20:58.462Z,6.40
2018-12-24T12:23:30.308Z,6.23
2018-12-24T12:26:02.201Z,6.13
2018-12-24T12:28:33.862Z,6.57
2018-12-24T12:31:05.451Z,6.10
2018-12-24T12:33:37.090Z,6.37
2018-12-24T12:36:08.684Z,5.50
2018-12-24T12:38:42.693Z,6.03
2018-12-24T12:41:15.380Z,5.83
2018-12-24T12:43:47.085Z,3.20
2018-12-24T12:46:19.005Z,5.90
2018-12-24T12:48:52.141Z,10.03
2018-12-24T12:52:07.993Z,7.80
2018-12-24T12:54:39.338Z,4.50
2018-12-24T12:57:10.509Z,3.67
2018-12-24T12:59:41.792Z,2.70
2018-12-24T13:02:14.165Z,2.70
2018-12-24T13:04:46.874Z,2.50
2018-12-24T13:07:19.003Z,2.30
2018-12-24T13:09:50.088Z,2.20
2018-12-24T13:12:22.593Z,3.10
2018-12-24T13:14:53.854Z,2.13
2018-12-24T13:17:26.586Z,1.77
2018-12-24T13:20:05.326Z,2.00
2018-12-24T13:22:36.524Z,2.57
2018-12-24T13:25:08.837Z,2.00
2018-12-24T13:27:40.942Z,1.90
2018-12-24T13:30:12.170Z,2.30
2018-12-24T13:32:44.481Z,7.93
2018-12-24T13:35:15.935Z,3.30
2018-12-24T13:37:46.928Z,3.23
2018-12-24T13:40:21.102Z,7.10
2018-12-24T13:42:52.317Z,5.57
2018-12-24T13:45:23.618Z,3.13
2018-12-24T13:47:54.673Z,3.23
2018-12-24T13:50:26.991Z,3.40
2018-12-24T13:52:58.080Z,2.30
2018-12-24T13:55:29.387Z,3.80
2018-12-24T13:58:00.633Z,4.23
2018-12-24T14:00:31.724Z,3.60
2018-12-24T14:03:02.946Z,3.40
2018-12-24T14:05:34.261Z,3.63
2018-12-24T14:08:05.474Z,2.80
2018-12-24T14:10:36.649Z,3.10
2018-12-24T14:13:07.710Z,2.77
2018-12-24T14:15:38.964Z,3.73
2018-12-24T14:18:10.155Z,4.00
2018-12-24T14:20:41.526Z,3.83
2018-12-24T14:23:12.978Z,2.80
2018-12-24T14:25:44.573Z,2.90
2018-12-24T14:28:15.783Z,2.90
2018-12-24T14:30:47.113Z,3.20
2018-12-24T14:33:18.337Z,4.83
2018-12-24T14:35:49.512Z,6.50
2018-12-24T14:38:20.619Z,8.40
2018-12-24T14:40:52.013Z,8.90
2018-12-24T14:43:23.360Z,10.67
2018-12-24T14:45:54.668Z,8.97
2018-12-24T14:48:25.966Z,10.40
2018-12-24T14:50:57.290Z,10.17
2018-12-24T14:53:28.516Z,10.83
2018-12-24T14:55:59.575Z,10.87
2018-12-24T14:58:30.929Z,10.47
2018-12-24T15:01:02.381Z,11.87
2018-12-24T15:03:33.489Z,12.20
2018-12-24T15:06:04.729Z,9.73
2018-12-24T15:08:35.875Z,10.47
2018-12-24T15:11:07.439Z,10.53
2018-12-24T15:13:38.822Z,8.90
2018-12-24T15:16:11.147Z,24.53
2018-12-24T15:18:42.471Z,75.30
2018-12-24T15:21:13.774Z,13.37
2018-12-24T15:23:45.197Z,11.47
2018-12-24T15:26:16.286Z,11.97
2018-12-24T15:28:47.515Z,12.07
2018-12-24T15:31:18.810Z,13.43
2018-12-24T15:33:49.944Z,10.47
2018-12-24T15:36:22.882Z,9.83
2018-12-24T15:38:54.029Z,7.77
2018-12-24T15:41:25.239Z,5.40
2018-12-24T15:43:56.390Z,3.30
2018-12-24T15:46:27.501Z,3.40
2018-12-24T15:48:58.744Z,2.83
2018-12-24T15:51:30.025Z,2.70
2018-12-24T15:54:01.303Z,2.47
2018-12-24T15:56:33.380Z,3.60
2018-12-24T15:59:04.523Z,3.53
2018-12-24T16:01:35.896Z,4.10
2018-12-24T16:04:07.175Z,4.50
2018-12-24T16:06:38.522Z,5.63
2018-12-24T16:09:09.787Z,4.23
2018-12-24T16:11:41.167Z,4.00
2018-12-24T16:14:12.459Z,3.10
2018-12-24T16:16:50.780Z,3.50
2018-12-24T16:19:16.849Z,2.53
2018-12-24T16:21:48.003Z,2.00
2018-12-24T16:24:19.192Z,2.27
2018-12-24T16:26:50.592Z,2.00
2018-12-24T16:29:23.047Z,2.27
2018-12-24T16:31:55.303Z,1.90
2018-12-24T16:34:26.477Z,2.00
2018-12-24T16:36:57.625Z,2.03
2018-12-24T16:39:29.089Z,1.97
2018-12-24T16:42:00.383Z,1.90
2018-12-24T16:44:31.712Z,2.53
2018-12-24T16:47:02.915Z,2.50
2018-12-24T16:49:34.034Z,2.47
2018-12-24T16:52:05.499Z,2.87
2018-12-24T16:54:36.636Z,2.70
2018-12-24T16:57:07.864Z,2.00
2018-12-24T16:59:39.166Z,3.30
2018-12-24T17:02:10.377Z,2.43
2018-12-24T17:04:41.627Z,3.30
2018-12-24T17:07:12.796Z,3.80
2018-12-24T17:09:44.154Z,3.07
2018-12-24T17:12:15.542Z,2.20
2018-12-24T17:14:46.732Z,3.80
2018-12-24T17:17:17.876Z,3.87
2018-12-24T17:19:49.163Z,4.47
2018-12-24T17:22:20.527Z,3.93
2018-12-24T17:24:52.722Z,3.37
2018-12-24T17:27:24.127Z,2.83
2018-12-24T17:29:55.374Z,4.20
2018-12-24T17:32:27.667Z,3.40
2018-12-24T17:34:59.233Z,2.73
2018-12-24T17:37:31.188Z,3.40
2018-12-24T17:40:05.071Z,3.00
2018-12-24T17:42:45.043Z,2.17
2018-12-24T17:45:18.803Z,3.20
2018-12-24T17:47:51.059Z,2.10
2018-12-24T17:50:23.105Z,2.37
2018-12-24T17:52:56.345Z,1.90
2018-12-24T17:55:29.398Z,1.87
2018-12-24T17:58:02.144Z,2.93
2018-12-24T18:00:36.473Z,2.77
2018-12-24T18:03:08.502Z,2.07
2018-12-24T18:05:42.159Z,2.50
2018-12-24T18:08:15.118Z,4.33
2018-12-24T18:10:48.213Z,2.23
2018-12-24T18:13:21.269Z,2.03
2018-12-24T18:15:55.741Z,4.30
2018-12-24T18:18:28.704Z,3.07
2018-12-24T18:21:01.455Z,2.67
2018-12-24T18:23:33.768Z,1.90
2018-12-24T18:26:05.297Z,2.60
2018-12-24T18:28:38.034Z,3.03
2018-12-24T18:31:19.732Z,3.20
2018-12-24T18:33:47.494Z,2.63
2018-12-24T18:36:20.507Z,2.00
2018-12-24T18:38:52.863Z,1.60
2018-12-24T18:41:27.762Z,2.20
2018-12-24T18:44:01.722Z,1.50
2018-12-24T18:46:34.737Z,1.80
2018-12-24T18:49:06.534Z,2.50
2018-12-24T18:51:40.582Z,2.77
2018-12-24T18:54:13.974Z,3.80
2018-12-24T18:56:46.326Z,1.67
2018-12-24T18:59:18.172Z,3.03
2018-12-24T19:01:51.259Z,2.70
2018-12-24T19:04:23.558Z,2.10
2018-12-24T19:06:55.831Z,2.40
2018-12-24T19:09:28.731Z,2.40
2018-12-24T19:12:01.996Z,2.07
2018-12-24T19:14:34.785Z,2.10
2018-12-24T19:17:07.192Z,2.07
2018-12-24T19:19:40.752Z,3.10
2018-12-24T19:22:14.875Z,1.80
2018-12-24T19:24:49.139Z,2.23
2018-12-24T19:27:21.941Z,2.00
2018-12-24T19:29:57.371Z,2.00
2018-12-24T19:32:30.171Z,2.47
2018-12-24T19:35:04.754Z,6.00
2018-12-24T19:37:36.848Z,5.70
2018-12-24T19:40:09.552Z,3.07
2018-12-24T19:42:42.897Z,2.10
2018-12-24T19:45:15.382Z,2.63
2018-12-24T19:47:50.033Z,2.63
2018-12-24T19:50:24.950Z,2.20
2018-12-24T19:52:58.015Z,2.50
2018-12-24T19:55:31.794Z,2.27
2018-12-24T19:58:04.632Z,3.53
2018-12-24T20:00:36.973Z,2.70
2018-12-24T20:03:12.201Z,2.20
2018-12-24T20:05:44.436Z,2.90
2018-12-24T20:08:17.253Z,2.20
2018-12-24T20:10:50.140Z,2.07
2018-12-24T20:13:22.687Z,2.03
2018-12-24T20:15:53.974Z,2.50
2018-12-24T20:18:28.046Z,3.00
2018-12-24T20:20:59.413Z,2.70
2018-12-24T20:23:31.922Z,7.27
2018-12-24T20:26:03.708Z,9.53
2018-12-24T20:28:37.764Z,3.33
2018-12-24T20:31:10.333Z,3.80
2018-12-24T20:33:44.337Z,3.17
2018-12-24T20:36:16.521Z,2.80
2018-12-24T20:38:48.118Z,2.97
2018-12-24T20:41:19.656Z,4.13
2018-12-24T20:43:52.010Z,3.47
2018-12-24T20:46:25.145Z,2.80
2018-12-24T20:48:57.030Z,2.70
2018-12-24T20:51:31.793Z,3.80
2018-12-24T20:54:06.511Z,4.27
2018-12-24T20:56:38.453Z,2.27
2018-12-24T20:59:11.246Z,6.00
2018-12-24T21:01:44.047Z,3.43
2018-12-24T21:04:16.379Z,2.43
2018-12-24T21:06:49.798Z,3.50
2018-12-24T21:09:22.442Z,3.73
2018-12-24T21:11:54.101Z,3.07
2018-12-24T21:14:25.361Z,4.00
2018-12-24T21:16:57.679Z,2.63
2018-12-24T21:19:29.971Z,4.83
2018-12-24T21:22:02.965Z,3.67
2018-12-24T21:24:35.392Z,2.60
2018-12-24T21:27:07.260Z,4.30
2018-12-24T21:29:39.405Z,2.90
2018-12-24T21:32:12.305Z,4.77
2018-12-24T21:34:47.893Z,3.20
2018-12-24T21:37:20.363Z,2.80
2018-12-24T21:39:55.318Z,4.07
2018-12-24T21:42:26.477Z,3.40
2018-12-24T21:44:57.751Z,2.90
2018-12-24T21:47:28.896Z,3.03
2018-12-24T21:50:00.324Z,4.33
2018-12-24T21:52:32.988Z,2.70
2018-12-24T21:55:04.380Z,5.00
2018-12-24T21:57:36.125Z,2.60
2018-12-24T22:00:07.711Z,4.00
2018-12-24T22:02:39.067Z,2.67
2018-12-24T22:05:10.462Z,3.40
2018-12-24T22:07:41.891Z,4.80
2018-12-24T22:10:14.743Z,4.90
2018-12-24T22:12:46.987Z,4.53
2018-12-24T22:15:18.129Z,2.73
2018-12-24T22:17:50.333Z,3.17
2018-12-24T22:20:21.476Z,3.50
2018-12-24T22:22:56.177Z,2.83
2018-12-24T22:25:27.477Z,2.80
2018-12-24T22:27:58.767Z,5.07
2018-12-24T22:30:29.882Z,3.23
2018-12-24T22:33:01.002Z,3.90
2018-12-24T22:35:32.226Z,4.83
2018-12-24T22:38:20.807Z,3.50
2018-12-24T22:40:51.916Z,3.93
2018-12-24T22:43:24.280Z,3.67
2018-12-24T22:45:55.460Z,3.60
2018-12-24T22:48:26.812Z,5.80
2018-12-24T22:50:57.827Z,3.83
2018-12-24T22:53:28.897Z,4.90
2018-12-24T22:56:00.102Z,6.27
2018-12-24T22:58:31.354Z,7.03
2018-12-24T23:01:04.279Z,7.07
2018-12-24T23:03:35.507Z,3.93
2018-12-24T23:06:06.640Z,4.13
2018-12-24T23:08:37.991Z,3.77
2018-12-24T23:11:09.241Z,22.03
2018-12-24T23:13:40.398Z,3.43
2018-12-24T23:16:11.695Z,7.10
2018-12-24T23:18:49.346Z,3.30
2018-12-24T23:21:15.844Z,3.63
2018-12-24T23:23:47.133Z,3.53
2018-12-24T23:26:18.372Z,3.70
2018-12-24T23:28:49.563Z,3.20
2018-12-24T23:31:20.732Z,4.40
2018-12-24T23:33:51.887Z,3.33
2018-12-24T23:36:23.102Z,3.10
2018-12-24T23:38:56.168Z,3.50
2018-12-24T23:41:27.316Z,3.27
2018-12-24T23:43:58.408Z,3.40
2018-12-24T23:46:29.536Z,3.67
2018-12-24T23:49:00.687Z,3.07
2018-12-24T23:51:31.905Z,3.17
2018-12-24T23:54:03.044Z,3.17
2018-12-24T23:56:34.222Z,3.73
2018-12-24T23:59:05.518Z,3.67
